sensor_id;sensor_type;location;lat;lon;timestamp;temperature;humidity
33741;DHT22;20065;48.380;10.892;2024-01-30T00:00:32;4.30;99.90
33741;DHT22;20065;48.380;10.892;2024-01-30T00:03:18;4.30;99.90
33741;DHT22;20065;48.380;10.892;2024-01-30T00:06:04;4.30;99.90
33741;DHT22;20065;48.380;10.892;2024-01-30T00:08:51;4.30;99.90
33741;DHT22;20065;48.380;10.892;2024-01-30T00:11:37;4.20;99.90
33741;DHT22;20065;48.380;10.892;2024-01-30T00:14:23;4.20;99.90
33741;DHT22;20065;48.380;10.892;2024-01-30T00:17:09;4.30;99.90
33741;DHT22;20065;48.380;10.892;2024-01-30T00:19:55;4.30;99.90
33741;DHT22;20065;48.380;10.892;2024-01-30T00:22:42;4.30;99.90
33741;DHT22;20065;48.380;10.892;2024-01-30T00:25:28;4.30;99.90
33741;DHT22;20065;48.380;10.892;2024-01-30T00:28:14;4.20;99.90
33741;DHT22;20065;48.380;10.892;2024-01-30T00:31:00;4.20;99.90
33741;DHT22;20065;48.380;10.892;2024-01-30T00:33:46;4.20;99.90
33741;DHT22;20065;48.380;10.892;2024-01-30T00:36:32;4.10;99.90
33741;DHT22;20065;48.380;10.892;2024-01-30T00:39:19;4.00;99.90
33741;DHT22;20065;48.380;10.892;2024-01-30T00:42:06;4.00;99.90
33741;DHT22;20065;48.380;10.892;2024-01-30T00:44:52;4.00;99.90
33741;DHT22;20065;48.380;10.892;2024-01-30T00:47:38;4.00;99.90
33741;DHT22;20065;48.380;10.892;2024-01-30T00:50:24;4.00;99.90
33741;DHT22;20065;48.380;10.892;2024-01-30T00:53:10;4.00;99.90
33741;DHT22;20065;48.380;10.892;2024-01-30T00:55:56;3.90;99.90
33741;DHT22;20065;48.380;10.892;2024-01-30T00:58:43;4.00;99.90
33741;DHT22;20065;48.380;10.892;2024-01-30T01:01:29;3.90;99.90
33741;DHT22;20065;48.380;10.892;2024-01-30T01:04:15;3.90;99.90
33741;DHT22;20065;48.380;10.892;2024-01-30T01:07:01;3.90;99.90
33741;DHT22;20065;48.380;10.892;2024-01-30T01:09:47;3.90;99.90
33741;DHT22;20065;48.380;10.892;2024-01-30T01:12:33;3.80;99.90
33741;DHT22;20065;48.380;10.892;2024-01-30T01:15:19;3.80;99.90
33741;DHT22;20065;48.380;10.892;2024-01-30T01:18:05;3.90;99.90
33741;DHT22;20065;48.380;10.892;2024-01-30T01:20:52;3.80;99.90
33741;DHT22;20065;48.380;10.892;2024-01-30T01:23:38;3.80;99.90
33741;DHT22;20065;48.380;10.892;2024-01-30T01:26:24;3.70;99.90
33741;DHT22;20065;48.380;10.892;2024-01-30T01:29:10;3.80;99.90
33741;DHT22;20065;48.380;10.892;2024-01-30T01:31:58;3.80;99.90
33741;DHT22;20065;48.380;10.892;2024-01-30T01:34:44;3.80;99.90
33741;DHT22;20065;48.380;10.892;2024-01-30T01:37:31;3.80;99.90
33741;DHT22;20065;48.380;10.892;2024-01-30T01:40:17;3.80;99.90
33741;DHT22;20065;48.380;10.892;2024-01-30T01:43:03;3.70;99.90
33741;DHT22;20065;48.380;10.892;2024-01-30T01:45:51;3.70;99.90
33741;DHT22;20065;48.380;10.892;2024-01-30T01:48:37;3.70;99.90
33741;DHT22;20065;48.380;10.892;2024-01-30T01:51:27;3.60;99.90
33741;DHT22;20065;48.380;10.892;2024-01-30T01:54:14;3.60;99.90
33741;DHT22;20065;48.380;10.892;2024-01-30T01:57:01;3.60;99.90
33741;DHT22;20065;48.380;10.892;2024-01-30T01:59:47;3.70;99.90
33741;DHT22;20065;48.380;10.892;2024-01-30T02:02:35;3.70;99.90
33741;DHT22;20065;48.380;10.892;2024-01-30T02:05:22;3.70;99.90
33741;DHT22;20065;48.380;10.892;2024-01-30T02:08:08;3.60;99.90
33741;DHT22;20065;48.380;10.892;2024-01-30T02:10:54;3.60;99.90
33741;DHT22;20065;48.380;10.892;2024-01-30T02:13:41;3.70;99.90
33741;DHT22;20065;48.380;10.892;2024-01-30T02:16:27;3.60;99.90
33741;DHT22;20065;48.380;10.892;2024-01-30T02:19:13;3.60;99.90
33741;DHT22;20065;48.380;10.892;2024-01-30T02:22:00;3.60;99.90
33741;DHT22;20065;48.380;10.892;2024-01-30T02:24:46;3.60;99.90
33741;DHT22;20065;48.380;10.892;2024-01-30T02:27:32;3.60;99.90
33741;DHT22;20065;48.380;10.892;2024-01-30T02:30:18;3.60;99.90
33741;DHT22;20065;48.380;10.892;2024-01-30T02:33:04;3.70;99.90
33741;DHT22;20065;48.380;10.892;2024-01-30T02:35:50;3.70;99.90
33741;DHT22;20065;48.380;10.892;2024-01-30T02:38:39;3.60;99.90
33741;DHT22;20065;48.380;10.892;2024-01-30T02:41:28;3.60;99.90
33741;DHT22;20065;48.380;10.892;2024-01-30T02:44:14;3.60;99.90
33741;DHT22;20065;48.380;10.892;2024-01-30T02:47:00;3.60;99.90
33741;DHT22;20065;48.380;10.892;2024-01-30T02:49:46;3.70;99.90
33741;DHT22;20065;48.380;10.892;2024-01-30T02:52:32;3.70;99.90
33741;DHT22;20065;48.380;10.892;2024-01-30T02:55:19;3.80;99.90
33741;DHT22;20065;48.380;10.892;2024-01-30T02:58:05;3.80;99.90
33741;DHT22;20065;48.380;10.892;2024-01-30T03:00:51;3.90;99.90
33741;DHT22;20065;48.380;10.892;2024-01-30T03:03:38;3.90;99.90
33741;DHT22;20065;48.380;10.892;2024-01-30T03:06:26;3.80;99.90
33741;DHT22;20065;48.380;10.892;2024-01-30T03:09:12;3.80;99.90
33741;DHT22;20065;48.380;10.892;2024-01-30T03:11:59;3.60;99.90
33741;DHT22;20065;48.380;10.892;2024-01-30T03:14:45;3.60;99.90
33741;DHT22;20065;48.380;10.892;2024-01-30T03:17:31;3.60;99.90
33741;DHT22;20065;48.380;10.892;2024-01-30T03:20:18;3.80;99.90
33741;DHT22;20065;48.380;10.892;2024-01-30T03:23:05;3.80;99.90
33741;DHT22;20065;48.380;10.892;2024-01-30T03:25:51;3.80;99.90
33741;DHT22;20065;48.380;10.892;2024-01-30T03:28:37;3.70;99.90
33741;DHT22;20065;48.380;10.892;2024-01-30T03:31:23;3.70;99.90
33741;DHT22;20065;48.380;10.892;2024-01-30T03:34:09;3.70;99.90
33741;DHT22;20065;48.380;10.892;2024-01-30T03:36:56;3.70;99.90
33741;DHT22;20065;48.380;10.892;2024-01-30T03:39:42;3.80;99.90
33741;DHT22;20065;48.380;10.892;2024-01-30T03:42:28;3.80;99.90
33741;DHT22;20065;48.380;10.892;2024-01-30T03:45:14;3.80;99.90
33741;DHT22;20065;48.380;10.892;2024-01-30T03:48:00;3.80;99.90
33741;DHT22;20065;48.380;10.892;2024-01-30T03:50:47;3.80;99.90
33741;DHT22;20065;48.380;10.892;2024-01-30T03:53:33;3.80;99.90
33741;DHT22;20065;48.380;10.892;2024-01-30T03:56:19;3.70;99.90
33741;DHT22;20065;48.380;10.892;2024-01-30T03:59:05;3.70;99.90
33741;DHT22;20065;48.380;10.892;2024-01-30T04:01:51;3.80;99.90
33741;DHT22;20065;48.380;10.892;2024-01-30T04:04:38;3.90;99.90
33741;DHT22;20065;48.380;10.892;2024-01-30T04:07:24;3.80;99.90
33741;DHT22;20065;48.380;10.892;2024-01-30T04:10:10;3.70;99.90
33741;DHT22;20065;48.380;10.892;2024-01-30T04:12:56;3.60;99.90
33741;DHT22;20065;48.380;10.892;2024-01-30T04:15:42;3.60;99.90
33741;DHT22;20065;48.380;10.892;2024-01-30T04:18:29;3.60;99.90
33741;DHT22;20065;48.380;10.892;2024-01-30T04:21:15;3.70;99.90
33741;DHT22;20065;48.380;10.892;2024-01-30T04:24:01;3.70;99.90
33741;DHT22;20065;48.380;10.892;2024-01-30T04:26:47;3.70;99.90
33741;DHT22;20065;48.380;10.892;2024-01-30T04:29:33;3.70;99.90
33741;DHT22;20065;48.380;10.892;2024-01-30T04:32:19;3.70;99.90
33741;DHT22;20065;48.380;10.892;2024-01-30T04:35:06;3.70;99.90
33741;DHT22;20065;48.380;10.892;2024-01-30T04:37:52;3.60;99.90
33741;DHT22;20065;48.380;10.892;2024-01-30T04:40:39;3.60;99.90
33741;DHT22;20065;48.380;10.892;2024-01-30T04:43:25;3.60;99.90
33741;DHT22;20065;48.380;10.892;2024-01-30T04:46:13;3.50;99.90
33741;DHT22;20065;48.380;10.892;2024-01-30T04:49:00;3.60;99.90
33741;DHT22;20065;48.380;10.892;2024-01-30T04:51:46;3.60;99.90
33741;DHT22;20065;48.380;10.892;2024-01-30T04:54:32;3.60;99.90
33741;DHT22;20065;48.380;10.892;2024-01-30T04:57:18;3.50;99.90
33741;DHT22;20065;48.380;10.892;2024-01-30T05:00:05;3.60;99.90
33741;DHT22;20065;48.380;10.892;2024-01-30T05:02:51;3.60;99.90
33741;DHT22;20065;48.380;10.892;2024-01-30T05:05:37;3.50;99.90
33741;DHT22;20065;48.380;10.892;2024-01-30T05:08:23;3.50;99.90
33741;DHT22;20065;48.380;10.892;2024-01-30T05:11:09;3.50;99.90
33741;DHT22;20065;48.380;10.892;2024-01-30T05:13:56;3.50;99.90
33741;DHT22;20065;48.380;10.892;2024-01-30T05:16:43;3.50;99.90
33741;DHT22;20065;48.380;10.892;2024-01-30T05:19:32;3.50;99.90
33741;DHT22;20065;48.380;10.892;2024-01-30T05:22:18;3.60;99.90
33741;DHT22;20065;48.380;10.892;2024-01-30T05:25:05;3.60;99.90
33741;DHT22;20065;48.380;10.892;2024-01-30T05:27:51;3.70;99.90
33741;DHT22;20065;48.380;10.892;2024-01-30T05:30:37;3.70;99.90
33741;DHT22;20065;48.380;10.892;2024-01-30T05:33:23;3.60;99.90
33741;DHT22;20065;48.380;10.892;2024-01-30T05:36:12;3.60;99.90
33741;DHT22;20065;48.380;10.892;2024-01-30T05:38:59;3.60;99.90
33741;DHT22;20065;48.380;10.892;2024-01-30T05:41:45;3.50;99.90
33741;DHT22;20065;48.380;10.892;2024-01-30T05:44:31;3.50;99.90
33741;DHT22;20065;48.380;10.892;2024-01-30T05:47:17;3.50;99.90
33741;DHT22;20065;48.380;10.892;2024-01-30T05:50:03;3.50;99.90
33741;DHT22;20065;48.380;10.892;2024-01-30T05:52:50;3.40;99.90
33741;DHT22;20065;48.380;10.892;2024-01-30T05:55:37;3.40;99.90
33741;DHT22;20065;48.380;10.892;2024-01-30T05:58:23;3.50;99.90
33741;DHT22;20065;48.380;10.892;2024-01-30T06:01:09;3.50;99.90
33741;DHT22;20065;48.380;10.892;2024-01-30T06:03:55;3.60;99.90
33741;DHT22;20065;48.380;10.892;2024-01-30T06:06:41;3.80;99.90
33741;DHT22;20065;48.380;10.892;2024-01-30T06:09:28;3.80;99.90
33741;DHT22;20065;48.380;10.892;2024-01-30T06:12:18;3.80;99.90
33741;DHT22;20065;48.380;10.892;2024-01-30T06:15:04;3.80;99.90
33741;DHT22;20065;48.380;10.892;2024-01-30T06:17:50;3.80;99.90
33741;DHT22;20065;48.380;10.892;2024-01-30T06:20:37;3.80;99.90
33741;DHT22;20065;48.380;10.892;2024-01-30T06:23:23;3.90;99.90
33741;DHT22;20065;48.380;10.892;2024-01-30T06:26:09;3.90;99.90
33741;DHT22;20065;48.380;10.892;2024-01-30T06:28:56;3.90;99.90
33741;DHT22;20065;48.380;10.892;2024-01-30T06:31:42;3.80;99.90
33741;DHT22;20065;48.380;10.892;2024-01-30T06:34:29;3.80;99.90
33741;DHT22;20065;48.380;10.892;2024-01-30T06:37:15;3.90;99.90
33741;DHT22;20065;48.380;10.892;2024-01-30T06:40:01;3.90;99.90
33741;DHT22;20065;48.380;10.892;2024-01-30T06:42:47;3.90;99.90
33741;DHT22;20065;48.380;10.892;2024-01-30T06:45:33;3.70;99.90
33741;DHT22;20065;48.380;10.892;2024-01-30T06:48:20;3.60;99.90
33741;DHT22;20065;48.380;10.892;2024-01-30T06:51:06;3.50;99.90
33741;DHT22;20065;48.380;10.892;2024-01-30T06:53:53;3.30;99.90
33741;DHT22;20065;48.380;10.892;2024-01-30T06:56:39;3.30;99.90
33741;DHT22;20065;48.380;10.892;2024-01-30T06:59:31;3.30;99.90
33741;DHT22;20065;48.380;10.892;2024-01-30T07:02:33;3.30;99.90
33741;DHT22;20065;48.380;10.892;2024-01-30T07:05:19;3.30;99.90
33741;DHT22;20065;48.380;10.892;2024-01-30T07:08:07;3.30;99.90
33741;DHT22;20065;48.380;10.892;2024-01-30T07:10:53;3.40;99.90
33741;DHT22;20065;48.380;10.892;2024-01-30T07:13:41;3.40;99.90
33741;DHT22;20065;48.380;10.892;2024-01-30T07:16:27;3.50;99.90
33741;DHT22;20065;48.380;10.892;2024-01-30T07:19:13;3.40;99.90
33741;DHT22;20065;48.380;10.892;2024-01-30T07:21:59;3.40;99.90
33741;DHT22;20065;48.380;10.892;2024-01-30T07:24:48;3.40;99.90
33741;DHT22;20065;48.380;10.892;2024-01-30T07:27:40;3.40;99.90
33741;DHT22;20065;48.380;10.892;2024-01-30T07:30:26;3.40;99.90
33741;DHT22;20065;48.380;10.892;2024-01-30T07:33:15;3.50;99.90
33741;DHT22;20065;48.380;10.892;2024-01-30T07:36:01;3.50;99.90
33741;DHT22;20065;48.380;10.892;2024-01-30T07:38:47;3.50;99.90
33741;DHT22;20065;48.380;10.892;2024-01-30T07:41:33;3.50;99.90
33741;DHT22;20065;48.380;10.892;2024-01-30T07:44:20;3.50;99.90
33741;DHT22;20065;48.380;10.892;2024-01-30T07:47:07;3.60;99.90
33741;DHT22;20065;48.380;10.892;2024-01-30T07:49:53;3.70;99.90
33741;DHT22;20065;48.380;10.892;2024-01-30T07:52:40;3.70;99.90
33741;DHT22;20065;48.380;10.892;2024-01-30T07:55:26;3.70;99.90
33741;DHT22;20065;48.380;10.892;2024-01-30T07:58:17;3.80;99.90
33741;DHT22;20065;48.380;10.892;2024-01-30T08:01:03;3.90;99.90
33741;DHT22;20065;48.380;10.892;2024-01-30T08:03:50;4.10;99.90
33741;DHT22;20065;48.380;10.892;2024-01-30T08:06:36;4.30;99.90
33741;DHT22;20065;48.380;10.892;2024-01-30T08:09:22;4.30;99.90
33741;DHT22;20065;48.380;10.892;2024-01-30T08:12:08;4.30;99.90
33741;DHT22;20065;48.380;10.892;2024-01-30T08:14:54;4.30;99.90
33741;DHT22;20065;48.380;10.892;2024-01-30T08:17:40;4.30;99.90
33741;DHT22;20065;48.380;10.892;2024-01-30T08:20:27;4.30;99.90
33741;DHT22;20065;48.380;10.892;2024-01-30T08:23:13;4.40;99.90
33741;DHT22;20065;48.380;10.892;2024-01-30T08:25:59;4.40;99.90
33741;DHT22;20065;48.380;10.892;2024-01-30T08:28:45;4.40;99.90
33741;DHT22;20065;48.380;10.892;2024-01-30T08:31:31;4.40;99.90
33741;DHT22;20065;48.380;10.892;2024-01-30T08:34:18;4.60;99.90
33741;DHT22;20065;48.380;10.892;2024-01-30T08:37:04;4.80;99.90
33741;DHT22;20065;48.380;10.892;2024-01-30T08:39:50;4.70;99.90
33741;DHT22;20065;48.380;10.892;2024-01-30T08:42:36;4.80;99.90
33741;DHT22;20065;48.380;10.892;2024-01-30T08:45:22;5.20;99.90
33741;DHT22;20065;48.380;10.892;2024-01-30T08:48:08;6.30;99.90
33741;DHT22;20065;48.380;10.892;2024-01-30T08:50:55;7.10;99.90
33741;DHT22;20065;48.380;10.892;2024-01-30T08:53:41;8.30;99.90
33741;DHT22;20065;48.380;10.892;2024-01-30T08:56:27;9.70;99.90
33741;DHT22;20065;48.380;10.892;2024-01-30T08:59:13;9.90;99.90
33741;DHT22;20065;48.380;10.892;2024-01-30T09:01:59;9.60;99.90
33741;DHT22;20065;48.380;10.892;2024-01-30T09:04:45;8.90;99.90
33741;DHT22;20065;48.380;10.892;2024-01-30T09:07:32;8.40;99.90
33741;DHT22;20065;48.380;10.892;2024-01-30T09:10:18;7.90;99.90
33741;DHT22;20065;48.380;10.892;2024-01-30T09:13:04;7.70;99.90
33741;DHT22;20065;48.380;10.892;2024-01-30T09:15:50;7.50;99.90
33741;DHT22;20065;48.380;10.892;2024-01-30T09:18:36;7.70;99.90
33741;DHT22;20065;48.380;10.892;2024-01-30T09:21:22;8.20;99.90
33741;DHT22;20065;48.380;10.892;2024-01-30T09:24:09;9.60;99.90
33741;DHT22;20065;48.380;10.892;2024-01-30T09:26:55;11.50;99.90
33741;DHT22;20065;48.380;10.892;2024-01-30T09:29:41;12.80;99.90
33741;DHT22;20065;48.380;10.892;2024-01-30T09:32:27;13.80;98.00
33741;DHT22;20065;48.380;10.892;2024-01-30T09:35:13;14.50;97.40
33741;DHT22;20065;48.380;10.892;2024-01-30T09:38:00;15.30;94.70
33741;DHT22;20065;48.380;10.892;2024-01-30T09:40:53;15.90;93.90
33741;DHT22;20065;48.380;10.892;2024-01-30T09:43:42;16.20;93.30
33741;DHT22;20065;48.380;10.892;2024-01-30T09:46:35;16.60;91.70
33741;DHT22;20065;48.380;10.892;2024-01-30T09:49:24;16.40;92.80
33741;DHT22;20065;48.380;10.892;2024-01-30T09:52:14;16.70;92.00
33741;DHT22;20065;48.380;10.892;2024-01-30T09:55:01;16.40;91.40
33741;DHT22;20065;48.380;10.892;2024-01-30T09:57:47;15.80;91.60
33741;DHT22;20065;48.380;10.892;2024-01-30T10:00:33;14.30;92.90
33741;DHT22;20065;48.380;10.892;2024-01-30T10:03:20;12.70;95.30
33741;DHT22;20065;48.380;10.892;2024-01-30T10:06:07;11.70;96.80
33741;DHT22;20065;48.380;10.892;2024-01-30T10:08:54;11.00;97.80
33741;DHT22;20065;48.380;10.892;2024-01-30T10:18:37;10.50;99.40
33741;DHT22;20065;48.380;10.892;2024-01-30T10:21:23;10.70;99.90
33741;DHT22;20065;48.380;10.892;2024-01-30T10:24:10;11.80;98.20
33741;DHT22;20065;48.380;10.892;2024-01-30T10:26:58;12.90;97.50
33741;DHT22;20065;48.380;10.892;2024-01-30T10:29:48;13.80;96.90
33741;DHT22;20065;48.380;10.892;2024-01-30T10:32:35;14.90;95.60
33741;DHT22;20065;48.380;10.892;2024-01-30T10:35:21;15.50;93.50
33741;DHT22;20065;48.380;10.892;2024-01-30T10:38:09;14.90;93.20
33741;DHT22;20065;48.380;10.892;2024-01-30T10:41:00;13.90;94.10
33741;DHT22;20065;48.380;10.892;2024-01-30T10:43:54;13.10;96.20
33741;DHT22;20065;48.380;10.892;2024-01-30T10:46:45;12.50;96.60
33741;DHT22;20065;48.380;10.892;2024-01-30T10:49:34;11.90;97.70
33741;DHT22;20065;48.380;10.892;2024-01-30T10:52:21;11.50;98.70
33741;DHT22;20065;48.380;10.892;2024-01-30T10:55:08;11.20;98.60
33741;DHT22;20065;48.380;10.892;2024-01-30T10:58:02;11.10;99.70
33741;DHT22;20065;48.380;10.892;2024-01-30T11:00:52;11.00;99.90
33741;DHT22;20065;48.380;10.892;2024-01-30T11:03:38;11.00;99.90
33741;DHT22;20065;48.380;10.892;2024-01-30T11:06:25;11.40;99.90
33741;DHT22;20065;48.380;10.892;2024-01-30T11:09:11;11.90;99.90
33741;DHT22;20065;48.380;10.892;2024-01-30T11:11:59;12.50;99.70
33741;DHT22;20065;48.380;10.892;2024-01-30T11:15:01;13.00;98.90
33741;DHT22;20065;48.380;10.892;2024-01-30T11:17:52;14.10;98.10
33741;DHT22;20065;48.380;10.892;2024-01-30T11:20:38;15.70;95.80
33741;DHT22;20065;48.380;10.892;2024-01-30T11:23:33;16.60;94.70
33741;DHT22;20065;48.380;10.892;2024-01-30T11:26:27;17.00;93.50
33741;DHT22;20065;48.380;10.892;2024-01-30T11:29:14;16.80;92.60
33741;DHT22;20065;48.380;10.892;2024-01-30T11:32:01;15.80;92.90
33741;DHT22;20065;48.380;10.892;2024-01-30T11:34:50;14.60;95.10
33741;DHT22;20065;48.380;10.892;2024-01-30T11:37:39;13.60;95.80
33741;DHT22;20065;48.380;10.892;2024-01-30T11:40:30;12.80;96.90
33741;DHT22;20065;48.380;10.892;2024-01-30T11:43:17;12.30;97.60
33741;DHT22;20065;48.380;10.892;2024-01-30T11:46:06;11.80;98.90
33741;DHT22;20065;48.380;10.892;2024-01-30T11:48:53;11.40;99.90
33741;DHT22;20065;48.380;10.892;2024-01-30T11:51:39;11.20;99.90
33741;DHT22;20065;48.380;10.892;2024-01-30T11:54:25;11.00;99.90
33741;DHT22;20065;48.380;10.892;2024-01-30T11:57:11;10.90;99.90
33741;DHT22;20065;48.380;10.892;2024-01-30T11:59:57;10.80;99.90
33741;DHT22;20065;48.380;10.892;2024-01-30T12:02:44;10.70;99.90
33741;DHT22;20065;48.380;10.892;2024-01-30T12:05:34;10.00;99.90
33741;DHT22;20065;48.380;10.892;2024-01-30T12:08:21;10.40;99.90
33741;DHT22;20065;48.380;10.892;2024-01-30T12:11:07;10.40;99.90
33741;DHT22;20065;48.380;10.892;2024-01-30T12:13:54;10.50;99.90
33741;DHT22;20065;48.380;10.892;2024-01-30T12:16:40;10.50;99.90
33741;DHT22;20065;48.380;10.892;2024-01-30T12:19:27;10.50;99.90
33741;DHT22;20065;48.380;10.892;2024-01-30T12:22:14;10.60;99.90
33741;DHT22;20065;48.380;10.892;2024-01-30T12:25:01;10.50;99.90
33741;DHT22;20065;48.380;10.892;2024-01-30T12:27:49;10.40;99.90
33741;DHT22;20065;48.380;10.892;2024-01-30T12:30:38;10.40;99.90
33741;DHT22;20065;48.380;10.892;2024-01-30T12:33:26;10.30;99.90
33741;DHT22;20065;48.380;10.892;2024-01-30T12:36:14;10.30;99.90
33741;DHT22;20065;48.380;10.892;2024-01-30T12:39:01;10.20;99.90
33741;DHT22;20065;48.380;10.892;2024-01-30T12:41:47;10.20;99.90
33741;DHT22;20065;48.380;10.892;2024-01-30T12:44:34;10.30;99.90
33741;DHT22;20065;48.380;10.892;2024-01-30T12:47:23;10.20;99.90
33741;DHT22;20065;48.380;10.892;2024-01-30T12:50:09;10.30;99.90
33741;DHT22;20065;48.380;10.892;2024-01-30T12:52:56;10.20;99.90
33741;DHT22;20065;48.380;10.892;2024-01-30T12:55:42;10.10;99.90
33741;DHT22;20065;48.380;10.892;2024-01-30T12:58:28;10.10;99.90
33741;DHT22;20065;48.380;10.892;2024-01-30T13:01:14;10.10;99.90
33741;DHT22;20065;48.380;10.892;2024-01-30T13:04:02;10.10;99.90
33741;DHT22;20065;48.380;10.892;2024-01-30T13:06:48;10.00;99.90
33741;DHT22;20065;48.380;10.892;2024-01-30T13:09:34;10.10;99.90
33741;DHT22;20065;48.380;10.892;2024-01-30T13:12:21;10.20;99.90
33741;DHT22;20065;48.380;10.892;2024-01-30T13:15:08;10.10;99.90
33741;DHT22;20065;48.380;10.892;2024-01-30T13:17:57;10.20;99.90
33741;DHT22;20065;48.380;10.892;2024-01-30T13:20:43;10.30;99.90
33741;DHT22;20065;48.380;10.892;2024-01-30T13:23:30;10.30;99.90
33741;DHT22;20065;48.380;10.892;2024-01-30T13:26:16;10.30;99.90
33741;DHT22;20065;48.380;10.892;2024-01-30T13:29:02;10.20;99.90
33741;DHT22;20065;48.380;10.892;2024-01-30T13:31:49;10.30;99.90
33741;DHT22;20065;48.380;10.892;2024-01-30T13:34:35;10.20;99.90
33741;DHT22;20065;48.380;10.892;2024-01-30T13:37:22;10.20;99.90
33741;DHT22;20065;48.380;10.892;2024-01-30T13:40:09;10.20;99.90
33741;DHT22;20065;48.380;10.892;2024-01-30T13:42:55;10.20;99.90
33741;DHT22;20065;48.380;10.892;2024-01-30T13:45:42;10.10;99.90
33741;DHT22;20065;48.380;10.892;2024-01-30T13:48:28;10.10;99.90
33741;DHT22;20065;48.380;10.892;2024-01-30T13:51:15;10.00;99.90
33741;DHT22;20065;48.380;10.892;2024-01-30T13:54:03;10.00;99.90
33741;DHT22;20065;48.380;10.892;2024-01-30T13:56:49;9.90;99.90
33741;DHT22;20065;48.380;10.892;2024-01-30T13:59:35;10.00;99.90
33741;DHT22;20065;48.380;10.892;2024-01-30T14:02:21;10.10;99.90
33741;DHT22;20065;48.380;10.892;2024-01-30T14:05:08;10.10;99.90
33741;DHT22;20065;48.380;10.892;2024-01-30T14:07:54;10.00;99.90
33741;DHT22;20065;48.380;10.892;2024-01-30T14:10:41;10.00;99.90
33741;DHT22;20065;48.380;10.892;2024-01-30T14:13:27;9.90;99.90
33741;DHT22;20065;48.380;10.892;2024-01-30T14:16:13;9.90;99.90
33741;DHT22;20065;48.380;10.892;2024-01-30T14:18:59;10.10;99.90
33741;DHT22;20065;48.380;10.892;2024-01-30T14:21:45;10.30;99.90
33741;DHT22;20065;48.380;10.892;2024-01-30T14:24:31;10.30;99.90
33741;DHT22;20065;48.380;10.892;2024-01-30T14:27:20;10.20;99.90
33741;DHT22;20065;48.380;10.892;2024-01-30T14:30:08;10.10;99.90
33741;DHT22;20065;48.380;10.892;2024-01-30T14:32:56;10.00;99.90
33741;DHT22;20065;48.380;10.892;2024-01-30T14:35:42;10.00;99.90
33741;DHT22;20065;48.380;10.892;2024-01-30T14:38:28;9.90;99.90
33741;DHT22;20065;48.380;10.892;2024-01-30T14:41:14;9.90;99.90
33741;DHT22;20065;48.380;10.892;2024-01-30T14:44:00;9.90;99.90
33741;DHT22;20065;48.380;10.892;2024-01-30T14:46:46;10.20;99.90
33741;DHT22;20065;48.380;10.892;2024-01-30T14:49:33;10.30;99.90
33741;DHT22;20065;48.380;10.892;2024-01-30T14:52:19;10.30;99.90
33741;DHT22;20065;48.380;10.892;2024-01-30T14:55:05;10.20;99.90
33741;DHT22;20065;48.380;10.892;2024-01-30T14:57:52;10.10;99.90
33741;DHT22;20065;48.380;10.892;2024-01-30T15:00:38;10.10;99.90
33741;DHT22;20065;48.380;10.892;2024-01-30T15:03:24;10.10;99.90
33741;DHT22;20065;48.380;10.892;2024-01-30T15:06:12;10.10;99.90
33741;DHT22;20065;48.380;10.892;2024-01-30T15:08:58;10.00;99.90
33741;DHT22;20065;48.380;10.892;2024-01-30T15:11:45;9.90;99.90
33741;DHT22;20065;48.380;10.892;2024-01-30T15:14:31;9.80;99.90
33741;DHT22;20065;48.380;10.892;2024-01-30T15:17:20;9.70;99.90
33741;DHT22;20065;48.380;10.892;2024-01-30T15:20:09;9.60;99.90
33741;DHT22;20065;48.380;10.892;2024-01-30T15:23:03;9.60;99.90
33741;DHT22;20065;48.380;10.892;2024-01-30T15:25:49;9.60;99.90
33741;DHT22;20065;48.380;10.892;2024-01-30T15:28:37;9.50;99.90
33741;DHT22;20065;48.380;10.892;2024-01-30T15:31:24;9.40;99.90
33741;DHT22;20065;48.380;10.892;2024-01-30T15:34:10;9.40;99.90
33741;DHT22;20065;48.380;10.892;2024-01-30T15:36:56;9.40;99.90
33741;DHT22;20065;48.380;10.892;2024-01-30T15:39:42;9.40;99.90
33741;DHT22;20065;48.380;10.892;2024-01-30T15:42:28;9.30;99.90
33741;DHT22;20065;48.380;10.892;2024-01-30T15:45:15;9.30;99.90
33741;DHT22;20065;48.380;10.892;2024-01-30T15:48:01;9.20;99.90
33741;DHT22;20065;48.380;10.892;2024-01-30T15:50:47;9.20;99.90
33741;DHT22;20065;48.380;10.892;2024-01-30T15:53:33;9.10;99.90
33741;DHT22;20065;48.380;10.892;2024-01-30T15:56:19;9.10;99.90
33741;DHT22;20065;48.380;10.892;2024-01-30T15:59:05;9.10;99.90
33741;DHT22;20065;48.380;10.892;2024-01-30T16:01:51;9.10;99.90
33741;DHT22;20065;48.380;10.892;2024-01-30T16:04:38;9.00;99.90
33741;DHT22;20065;48.380;10.892;2024-01-30T16:07:24;8.90;99.90
33741;DHT22;20065;48.380;10.892;2024-01-30T16:10:11;8.90;99.90
33741;DHT22;20065;48.380;10.892;2024-01-30T16:13:02;8.90;99.90
33741;DHT22;20065;48.380;10.892;2024-01-30T16:15:48;8.80;99.90
33741;DHT22;20065;48.380;10.892;2024-01-30T16:18:34;8.80;99.90
33741;DHT22;20065;48.380;10.892;2024-01-30T16:21:21;8.70;99.90
33741;DHT22;20065;48.380;10.892;2024-01-30T16:24:07;8.70;99.90
33741;DHT22;20065;48.380;10.892;2024-01-30T16:26:53;8.60;99.90
33741;DHT22;20065;48.380;10.892;2024-01-30T16:29:39;8.60;99.90
33741;DHT22;20065;48.380;10.892;2024-01-30T16:32:25;8.50;99.90
33741;DHT22;20065;48.380;10.892;2024-01-30T16:35:11;8.50;99.90
33741;DHT22;20065;48.380;10.892;2024-01-30T16:37:58;8.50;99.90
33741;DHT22;20065;48.380;10.892;2024-01-30T16:40:44;8.50;99.90
33741;DHT22;20065;48.380;10.892;2024-01-30T16:43:31;8.40;99.90
33741;DHT22;20065;48.380;10.892;2024-01-30T16:46:17;8.40;99.90
33741;DHT22;20065;48.380;10.892;2024-01-30T16:49:03;8.30;99.90
33741;DHT22;20065;48.380;10.892;2024-01-30T16:51:50;8.30;99.90
33741;DHT22;20065;48.380;10.892;2024-01-30T16:54:39;8.20;99.90
33741;DHT22;20065;48.380;10.892;2024-01-30T16:57:26;8.20;99.90
33741;DHT22;20065;48.380;10.892;2024-01-30T17:00:12;8.20;99.90
33741;DHT22;20065;48.380;10.892;2024-01-30T17:02:58;8.10;99.90
33741;DHT22;20065;48.380;10.892;2024-01-30T17:05:45;8.10;99.90
33741;DHT22;20065;48.380;10.892;2024-01-30T17:08:34;8.10;99.90
33741;DHT22;20065;48.380;10.892;2024-01-30T17:11:20;8.10;99.90
33741;DHT22;20065;48.380;10.892;2024-01-30T17:14:07;8.10;99.90
33741;DHT22;20065;48.380;10.892;2024-01-30T17:16:53;8.00;99.90
33741;DHT22;20065;48.380;10.892;2024-01-30T17:19:40;8.00;99.90
33741;DHT22;20065;48.380;10.892;2024-01-30T17:22:26;8.00;99.90
33741;DHT22;20065;48.380;10.892;2024-01-30T17:25:14;8.00;99.90
33741;DHT22;20065;48.380;10.892;2024-01-30T17:28:01;8.00;99.90
33741;DHT22;20065;48.380;10.892;2024-01-30T17:30:48;7.90;99.90
33741;DHT22;20065;48.380;10.892;2024-01-30T17:33:34;7.80;99.90
33741;DHT22;20065;48.380;10.892;2024-01-30T17:36:20;7.80;99.90